ECN weather

Ercan International Airport
Nicosia, Nicosia District, Cyprus

Public forecast

Using degrees Celsius for public forecast. Weather courtesy of forecast.io.

METAR (pilot weather report)

Retrieved 2019/04/21 21:20 UTC (29 minutes ago):

LCEN 212120Z 28010KT 9999 FEW025 11/07 Q1013 NOSIG RMK RWY11 28008KT

TAF (pilot weather forecast)

Retrieved 2019/04/21 18:03 UTC (4 hours ago):

TAF TAF LCEN 211640Z 2118/2218 29015KT 9999 FEW025